Time;durP1;ratioP1;P1;durP2;ratioP2;P2;SDS_P1;SDS_P2;PMS_P1;PMS_P2;Temp;Humidity;BMP_temperature;BMP_pressure;BME280_temperature;BME280_humidity;BME280_pressure;Samples;Min_cycle;Max_cycle;Signal;HPM_P1;HPM_P2
2023/08/26 00:01:30;;;;;;;6.65;3.90;;;;;;;24.27;58.51;100899.84;4962762;28;20037;-74
2023/08/26 00:03:55;;;;;;;9.85;4.18;;;;;;;24.26;58.40;100899.03;4961651;28;20058;-73
2023/08/26 00:06:21;;;;;;;5.97;3.63;;;;;;;24.24;58.33;100897.53;4962282;28;20550;-73
2023/08/26 00:08:46;;;;;;;6.65;3.85;;;;;;;24.25;58.23;100892.03;4962102;28;20035;-77
2023/08/26 00:11:11;;;;;;;6.05;3.30;;;;;;;24.25;58.08;100896.53;4962011;28;20037;-72
2023/08/26 00:13:36;;;;;;;7.37;3.90;;;;;;;24.25;57.69;100904.53;4976770;28;20050;-79
2023/08/26 00:16:02;;;;;;;5.22;3.15;;;;;;;24.24;57.92;100894.84;4962753;28;20646;-72
2023/08/26 00:18:27;;;;;;;6.75;3.20;;;;;;;24.22;57.78;100902.19;4961742;28;20073;-76
2023/08/26 00:20:53;;;;;;;6.28;3.10;;;;;;;24.22;57.34;100903.00;4962227;28;20133;-72
2023/08/26 00:23:18;;;;;;;6.38;3.45;;;;;;;24.22;57.32;100897.69;4960603;28;20805;-77
2023/08/26 00:25:43;;;;;;;5.60;3.22;;;;;;;24.21;57.43;100897.84;4961710;28;20038;-74
2023/08/26 00:28:08;;;;;;;6.03;2.97;;;;;;;24.20;57.37;100897.03;4961898;28;20038;-77
2023/08/26 00:30:34;;;;;;;5.07;3.10;;;;;;;24.20;57.16;100899.69;4962205;28;20299;-73
2023/08/26 00:32:59;;;;;;;6.57;3.25;;;;;;;24.18;57.06;100896.34;4961150;28;20284;-75
2023/08/26 00:35:25;;;;;;;5.20;2.60;;;;;;;24.18;57.46;100896.34;4961979;28;20164;-72
2023/08/26 00:37:51;;;;;;;4.78;2.65;;;;;;;24.17;57.09;100897.34;4961171;28;20034;-73
2023/08/26 00:40:17;;;;;;;4.82;2.60;;;;;;;24.17;57.05;100889.34;4962013;28;20062;-73
2023/08/26 00:42:42;;;;;;;8.23;2.42;;;;;;;24.17;56.99;100888.53;4961831;28;20051;-73
2023/08/26 00:45:08;;;;;;;5.97;2.77;;;;;;;24.15;56.87;100896.69;4961757;28;20684;-76
2023/08/26 00:47:34;;;;;;;6.85;2.30;;;;;;;24.15;56.84;100891.34;4961900;28;20322;-72
2023/08/26 00:49:59;;;;;;;4.15;2.20;;;;;;;24.14;56.74;100897.66;4960166;28;20038;-76
2023/08/26 00:52:25;;;;;;;5.18;2.30;;;;;;;24.14;56.63;100895.00;4962077;28;20554;-73
2023/08/26 00:54:50;;;;;;;4.20;2.20;;;;;;;24.14;56.42;100903.00;4961310;28;20939;-73
2023/08/26 00:57:16;;;;;;;4.38;2.20;;;;;;;24.13;56.49;100900.50;4961979;28;20035;-74
2023/08/26 00:59:41;;;;;;;4.57;2.00;;;;;;;24.11;56.57;100897.16;4960489;28;20048;-78
2023/08/26 01:02:08;;;;;;;5.35;2.30;;;;;;;24.07;55.92;100900.16;4960266;28;20041;-72
2023/08/26 01:04:33;;;;;;;4.68;1.80;;;;;;;24.10;56.38;100909.66;4961256;28;20035;-72
2023/08/26 01:06:59;;;;;;;4.70;2.03;;;;;;;24.11;56.27;100899.84;4960880;28;20035;-73
2023/08/26 01:09:24;;;;;;;4.03;1.70;;;;;;;24.10;55.83;100901.66;4961284;28;20041;-77
2023/08/26 01:12:17;;;;;;;4.35;1.80;;;;;;;24.08;55.64;100900.97;4960699;28;20035;-76
2023/08/26 01:15:10;;;;;;;3.60;1.83;;;;;;;24.08;55.77;100903.66;4958210;28;20054;-79
2023/08/26 01:17:37;;;;;;;4.60;1.88;;;;;;;24.09;55.81;100902.66;4961341;28;20023;-73
2023/08/26 01:20:05;;;;;;;6.15;2.55;;;;;;;24.07;55.23;100904.66;4959675;28;20492;-76
2023/08/26 01:22:34;;;;;;;3.67;1.58;;;;;;;24.07;55.33;100902.00;4975508;28;20030;-73
2023/08/26 01:25:00;;;;;;;4.88;1.90;;;;;;;24.07;55.30;100909.97;4960844;28;20151;-79
2023/08/26 01:27:25;;;;;;;3.83;1.70;;;;;;;24.04;54.92;100910.31;4961115;28;20062;-73
2023/08/26 01:29:50;;;;;;;4.82;1.60;;;;;;;24.05;55.13;100909.28;4959130;28;20139;-73
2023/08/26 01:32:50;;;;;;;3.72;1.67;;;;;;;24.02;55.33;100902.47;4961599;28;20439;-73
2023/08/26 01:35:20;;;;;;;3.63;1.45;;;;;;;24.03;55.08;100900.63;4961108;28;20034;-73
2023/08/26 01:37:47;;;;;;;3.15;1.42;;;;;;;24.03;54.83;100906.78;4961314;28;20059;-75
2023/08/26 01:40:13;;;;;;;3.65;1.55;;;;;;;24.01;55.09;100902.66;4960624;28;20162;-75
2023/08/26 01:42:42;;;;;;;4.38;1.58;;;;;;;24.00;54.81;100904.44;4960305;28;20045;-74
2023/08/26 01:45:08;;;;;;;6.38;1.60;;;;;;;24.00;54.81;100907.13;4961127;28;20089;-78
2023/08/26 01:47:33;;;;;;;5.13;1.70;;;;;;;24.01;54.81;100911.44;4961394;28;20035;-73
2023/08/26 01:49:59;;;;;;;2.90;1.30;;;;;;;24.00;54.57;100909.78;4960261;28;20035;-79
2023/08/26 01:52:24;;;;;;;4.55;1.80;;;;;;;24.00;54.79;100907.13;4961182;28;20269;-73
2023/08/26 01:54:49;;;;;;;5.78;1.40;;;;;;;23.99;54.58;100912.59;4960573;28;20092;-75
2023/08/26 01:57:17;;;;;;;4.32;2.00;;;;;;;23.97;54.29;100906.63;4960381;28;20508;-73
2023/08/26 01:59:43;;;;;;;3.67;1.38;;;;;;;23.99;54.22;100909.94;4960523;28;20480;-75
2023/08/26 02:02:08;;;;;;;3.85;1.58;;;;;;;23.97;54.25;100911.94;4960843;28;20030;-78
2023/08/26 02:04:34;;;;;;;3.47;1.40;;;;;;;23.97;54.07;100911.94;4960114;28;20043;-69
2023/08/26 02:06:59;;;;;;;3.58;1.45;;;;;;;23.96;53.75;100912.91;4960387;28;20836;-74
2023/08/26 02:09:24;;;;;;;3.97;1.60;;;;;;;23.95;53.96;100909.44;4960257;28;20047;-73
2023/08/26 02:11:50;;;;;;;4.40;1.30;;;;;;;23.95;54.28;100904.09;4960574;28;20039;-74
2023/08/26 02:14:15;;;;;;;3.70;1.40;;;;;;;23.94;54.15;100898.94;4960508;28;20058;-74
2023/08/26 02:16:40;;;;;;;3.25;1.40;;;;;;;23.93;53.92;100900.78;4960096;28;20284;-74
2023/08/26 02:19:05;;;;;;;3.20;1.40;;;;;;;23.93;54.05;100899.97;4960769;28;20444;-75
2023/08/26 02:21:31;;;;;;;4.13;1.55;;;;;;;23.93;53.59;100897.31;4960605;28;20269;-75
2023/08/26 02:23:56;;;;;;;5.70;1.50;;;;;;;23.93;53.55;100902.63;4959803;28;20047;-74
2023/08/26 02:26:21;;;;;;;3.95;1.30;;;;;;;23.90;53.44;100898.44;4960660;28;20046;-73
2023/08/26 02:28:47;;;;;;;3.88;1.33;;;;;;;23.91;53.82;100902.78;4960406;28;20101;-73
2023/08/26 02:31:12;;;;;;;3.60;1.10;;;;;;;23.90;53.25;100903.78;4960309;28;20046;-77
2023/08/26 02:33:37;;;;;;;3.83;1.42;;;;;;;23.90;53.57;100901.09;4960528;28;20055;-72
2023/08/26 02:36:03;;;;;;;3.33;1.30;;;;;;;23.89;53.52;100902.09;4960548;28;20035;-79
2023/08/26 02:38:31;;;;;;;4.40;1.20;;;;;;;23.87;53.41;100904.91;4960582;28;20276;-75
2023/08/26 02:40:56;;;;;;;4.22;1.10;;;;;;;23.87;53.01;100907.56;4960233;28;20041;-76
2023/08/26 02:43:22;;;;;;;5.43;1.60;;;;;;;23.87;53.23;100904.91;4960729;28;20027;-73
2023/08/26 02:45:57;;;;;;;3.20;1.40;;;;;;;23.86;53.08;100899.75;4959249;28;20038;-72
2023/08/26 02:48:25;;;;;;;2.20;1.15;;;;;;;23.86;52.76;100902.41;4960230;28;20046;-73
2023/08/26 02:50:55;;;;;;;4.28;1.20;;;;;;;23.85;53.04;100890.13;4959449;28;20153;-77
2023/08/26 02:53:21;;;;;;;2.42;1.10;;;;;;;23.85;52.91;100893.59;4963226;28;20030;-77
2023/08/26 02:55:46;;;;;;;7.45;1.33;;;;;;;23.85;52.92;100892.78;4963634;28;20038;-74
2023/08/26 02:58:11;;;;;;;3.30;1.00;;;;;;;23.84;53.22;100894.59;4964393;28;20034;-77
2023/08/26 03:00:36;;;;;;;4.07;1.10;;;;;;;23.84;52.97;100899.09;4963576;28;20268;-75
2023/08/26 03:03:02;;;;;;;3.17;0.90;;;;;;;23.84;52.83;100894.59;4964948;28;20560;-76
2023/08/26 03:05:27;;;;;;;3.58;1.10;;;;;;;23.84;52.97;100896.44;4963920;28;20277;-79
2023/08/26 03:07:54;;;;;;;3.97;1.35;;;;;;;23.83;52.90;100897.38;4963618;28;20565;-73
2023/08/26 03:10:19;;;;;;;4.20;1.20;;;;;;;23.80;52.88;100893.22;4963599;28;20571;-73
2023/08/26 03:12:44;;;;;;;2.90;1.00;;;;;;;23.82;52.84;100901.06;4962346;28;20138;-74
2023/08/26 03:15:10;;;;;;;3.33;1.23;;;;;;;23.80;52.19;100895.03;4963156;28;20030;-73
2023/08/26 03:17:35;;;;;;;1.98;0.80;;;;;;;23.80;52.54;100903.88;4963922;28;20506;-75
2023/08/26 03:20:01;;;;;;;3.00;1.20;;;;;;;23.82;52.52;100898.38;4963164;28;20121;-73
2023/08/26 03:22:26;;;;;;;2.78;1.30;;;;;;;23.80;52.12;100901.22;4963577;28;20109;-78
2023/08/26 03:24:51;;;;;;;2.83;1.00;;;;;;;23.80;52.26;100901.22;4963475;28;20400;-73
2023/08/26 03:27:16;;;;;;;3.17;1.10;;;;;;;23.79;52.54;100896.88;4962833;28;20260;-79
2023/08/26 03:29:42;;;;;;;3.50;0.98;;;;;;;23.79;52.14;100904.03;4962979;28;20629;-73
2023/08/26 03:32:07;;;;;;;3.17;0.90;;;;;;;23.78;52.13;100902.34;4963279;28;20158;-79
2023/08/26 03:34:32;;;;;;;2.28;1.08;;;;;;;23.77;52.06;100909.50;4962424;28;20030;-73
2023/08/26 03:36:58;;;;;;;3.45;1.10;;;;;;;23.78;51.94;100903.19;4963023;28;20189;-77
2023/08/26 03:39:23;;;;;;;5.40;1.27;;;;;;;23.77;52.36;100906.84;4963169;28;20035;-74
2023/08/26 03:41:48;;;;;;;2.88;1.00;;;;;;;23.77;52.19;100908.69;4962201;28;20892;-77
2023/08/26 03:44:14;;;;;;;3.13;1.00;;;;;;;23.76;52.16;100904.34;4962848;28;20117;-73
2023/08/26 03:46:39;;;;;;;4.45;1.25;;;;;;;23.75;52.06;100911.50;4962499;28;21184;-76
2023/08/26 03:49:04;;;;;;;3.33;1.10;;;;;;;23.74;51.53;100904.50;4962228;28;20043;-73
2023/08/26 03:51:30;;;;;;;3.80;1.20;;;;;;;23.73;52.00;100910.81;4962667;28;20275;-76
2023/08/26 03:53:55;;;;;;;5.55;1.40;;;;;;;23.74;51.87;100915.16;4961290;28;20126;-73
2023/08/26 03:56:20;;;;;;;3.85;1.20;;;;;;;23.75;51.68;100915.97;4961944;28;20109;-74
2023/08/26 03:58:45;;;;;;;7.53;1.20;;;;;;;23.72;51.79;100911.81;4963035;28;20046;-72
2023/08/26 04:01:11;;;;;;;3.60;1.10;;;;;;;23.73;51.78;100914.34;4962504;28;20327;-74
2023/08/26 04:03:36;;;;;;;2.67;0.93;;;;;;;23.73;51.73;100918.81;4961605;28;20276;-78
2023/08/26 04:06:04;;;;;;;3.42;1.20;;;;;;;23.72;51.65;100919.81;4962476;28;20038;-73
2023/08/26 04:08:31;;;;;;;3.03;1.00;;;;;;;23.72;51.82;100919.81;4962442;28;20518;-74
2023/08/26 04:10:57;;;;;;;3.03;1.10;;;;;;;23.72;51.35;100925.13;4961686;28;20046;-72
2023/08/26 04:13:24;;;;;;;4.80;2.70;;;;;;;23.70;51.23;100925.28;4962360;28;20051;-73
2023/08/26 04:15:53;;;;;;;3.42;1.83;;;;;;;23.70;51.38;100929.75;4961689;28;20035;-77
2023/08/26 04:18:19;;;;;;;4.93;1.63;;;;;;;23.69;51.24;100936.91;4961630;28;20031;-77
2023/08/26 04:20:44;;;;;;;2.85;1.15;;;;;;;23.69;50.93;100938.75;4962003;28;20041;-77
2023/08/26 04:23:10;;;;;;;2.90;1.20;;;;;;;23.68;50.97;100934.41;4961958;28;20432;-73
2023/08/26 04:25:35;;;;;;;5.00;1.20;;;;;;;23.69;51.06;100936.09;4962191;28;20038;-74
2023/08/26 04:28:00;;;;;;;3.75;1.25;;;;;;;23.68;51.15;100940.56;4962302;28;20407;-77
2023/08/26 04:30:26;;;;;;;4.35;1.52;;;;;;;23.67;50.84;100938.91;4961695;28;20922;-74
2023/08/26 04:32:51;;;;;;;3.00;1.00;;;;;;;23.67;51.23;100954.88;4961613;28;20030;-77
2023/08/26 04:35:17;;;;;;;4.00;1.20;;;;;;;23.66;51.06;100955.84;4962236;28;20316;-72
2023/08/26 04:37:42;;;;;;;3.78;1.33;;;;;;;23.67;51.04;100956.69;4961269;28;20037;-73
2023/08/26 04:40:13;;;;;;;3.77;0.97;;;;;;;23.66;50.95;100961.19;4961936;28;20046;-73
2023/08/26 04:42:39;;;;;;;5.13;1.20;;;;;;;23.64;50.78;100957.84;4962139;28;20276;-72
2023/08/26 04:45:05;;;;;;;3.90;0.90;;;;;;;23.64;50.98;100963.16;4960865;28;20038;-72
2023/08/26 04:47:31;;;;;;;3.42;1.20;;;;;;;23.64;50.79;100965.84;4961901;28;20070;-75
2023/08/26 04:49:56;;;;;;;5.25;1.23;;;;;;;23.64;50.73;100964.97;4961293;28;20121;-76
2023/08/26 04:52:22;;;;;;;3.33;1.20;;;;;;;23.63;50.74;100963.31;4961564;28;20038;-74
2023/08/26 04:54:47;;;;;;;3.03;1.10;;;;;;;23.61;50.94;100962.66;4961564;28;20699;-72
2023/08/26 04:57:12;;;;;;;3.30;1.13;;;;;;;23.63;50.48;100968.66;4961897;28;20268;-74
2023/08/26 04:59:37;;;;;;;3.60;1.05;;;;;;;23.63;50.69;100968.66;4960735;28;20057;-72
2023/08/26 05:02:06;;;;;;;4.35;1.50;;;;;;;23.61;50.49;100981.28;4960988;28;20062;-73
2023/08/26 05:04:33;;;;;;;4.22;1.15;;;;;;;23.62;50.70;100985.59;4961725;28;20097;-74
2023/08/26 05:06:59;;;;;;;2.65;1.00;;;;;;;23.60;50.51;100980.44;4960740;28;20038;-73
2023/08/26 05:09:24;;;;;;;2.90;1.10;;;;;;;23.58;50.58;100982.41;4961282;28;20027;-76
2023/08/26 05:11:49;;;;;;;3.67;1.10;;;;;;;23.59;50.53;100986.75;4961263;28;20067;-71
2023/08/26 05:14:15;;;;;;;4.38;1.08;;;;;;;23.59;50.60;100986.75;4960148;28;20642;-73
2023/08/26 05:16:40;;;;;;;3.47;1.20;;;;;;;23.60;50.73;100987.59;4960384;28;20040;-72
2023/08/26 05:19:05;;;;;;;2.30;1.00;;;;;;;23.58;50.66;100982.41;4961513;28;20066;-75
2023/08/26 05:21:31;;;;;;;4.72;1.20;;;;;;;23.58;50.70;100984.25;4960857;28;20272;-72
2023/08/26 05:23:57;;;;;;;2.58;1.00;;;;;;;23.56;50.54;100976.44;4960151;28;20038;-76
2023/08/26 05:26:24;;;;;;;2.92;1.08;;;;;;;23.57;50.40;100983.41;4960823;28;20042;-72
2023/08/26 05:28:49;;;;;;;3.45;1.10;;;;;;;23.57;50.63;100978.06;4960433;28;20062;-75
2023/08/26 05:31:15;;;;;;;3.22;0.90;;;;;;;23.57;50.67;100979.91;4961017;28;20081;-77
2023/08/26 05:33:40;;;;;;;3.78;1.17;;;;;;;23.57;50.46;100988.72;4960562;28;20153;-72
2023/08/26 05:36:05;;;;;;;3.55;1.13;;;;;;;23.63;50.79;100981.94;4961055;28;20070;-73
2023/08/26 05:38:31;;;;;;;2.28;0.98;;;;;;;23.67;51.29;100986.81;4960920;28;20130;-72
2023/08/26 05:40:56;;;;;;;4.37;1.37;;;;;;;23.69;51.12;100981.31;4960112;28;20046;-73
2023/08/26 05:43:21;;;;;;;3.38;1.40;;;;;;;23.67;50.86;100975.31;4960811;28;20388;-72
2023/08/26 05:45:47;;;;;;;6.88;1.40;;;;;;;23.65;50.75;100972.81;4960775;28;20038;-73
2023/08/26 05:48:12;;;;;;;2.78;1.10;;;;;;;23.64;50.70;100971.16;4960643;28;20070;-76
2023/08/26 05:50:37;;;;;;;5.87;1.13;;;;;;;23.63;50.84;100972.13;4960306;28;20473;-72
2023/08/26 05:53:03;;;;;;;3.20;1.13;;;;;;;23.60;51.34;100972.44;4961025;28;20314;-75
2023/08/26 05:55:28;;;;;;;3.63;1.10;;;;;;;23.58;50.77;100966.47;4960331;28;20377;-73
2023/08/26 05:57:53;;;;;;;4.78;1.35;;;;;;;23.58;50.97;100974.44;4960945;28;20041;-73
2023/08/26 06:00:19;;;;;;;3.55;1.10;;;;;;;23.58;51.37;100981.59;4961194;28;20118;-72
2023/08/26 06:02:44;;;;;;;3.30;1.27;;;;;;;23.58;50.83;100978.94;4959848;28;20088;-71
2023/08/26 06:05:09;;;;;;;3.20;1.00;;;;;;;23.55;51.47;100969.44;4961196;28;20035;-73
2023/08/26 06:07:35;;;;;;;4.00;1.40;;;;;;;23.55;51.15;100969.44;4961343;28;20035;-73
2023/08/26 06:10:00;;;;;;;2.72;1.10;;;;;;;23.52;51.21;100975.88;4974572;28;20439;-73
2023/08/26 06:12:25;;;;;;;4.25;1.30;;;;;;;23.51;51.42;100976.03;4960733;28;20055;-73
2023/08/26 06:14:51;;;;;;;3.60;1.27;;;;;;;23.50;51.70;100972.56;4959755;28;20038;-72
2023/08/26 06:17:16;;;;;;;4.53;1.23;;;;;;;23.51;51.99;100966.25;4960354;28;20082;-74
2023/08/26 06:19:41;;;;;;;5.85;1.45;;;;;;;23.53;51.69;100960.78;4961256;28;20035;-73
2023/08/26 06:22:07;;;;;;;5.78;1.55;;;;;;;23.52;51.96;100965.25;4975998;28;20038;-73
2023/08/26 06:24:32;;;;;;;4.47;1.40;;;;;;;23.50;52.46;100964.59;4959380;28;20507;-73
2023/08/26 06:26:58;;;;;;;3.92;1.45;;;;;;;23.51;52.42;100963.59;4968012;28;20476;-72
2023/08/26 06:29:24;;;;;;;3.78;1.20;;;;;;;23.52;52.40;100969.75;4965099;28;20081;-80
2023/08/26 06:31:49;;;;;;;4.30;1.38;;;;;;;23.51;52.50;100968.91;4964675;28;20047;-74
2023/08/26 06:34:14;;;;;;;4.45;1.30;;;;;;;23.53;52.74;100960.78;4965197;28;20397;-74
2023/08/26 06:36:40;;;;;;;5.82;1.50;;;;;;;23.51;52.26;100971.56;4964563;28;20019;-72
2023/08/26 06:39:06;;;;;;;4.40;1.42;;;;;;;23.53;52.65;100971.44;4964936;28;20043;-72
2023/08/26 06:41:34;;;;;;;6.80;1.63;;;;;;;23.51;52.80;100970.72;4964595;28;20045;-71
2023/08/26 06:43:59;;;;;;;5.35;1.50;;;;;;;23.54;52.59;100967.75;4963430;28;20105;-68
2023/08/26 06:46:24;;;;;;;4.27;1.77;;;;;;;23.50;52.74;100967.25;4964494;28;20472;-73
2023/08/26 06:48:49;;;;;;;4.53;1.40;;;;;;;23.52;52.84;100967.91;4964148;28;20279;-71
2023/08/26 06:51:15;;;;;;;7.95;1.65;;;;;;;23.55;52.84;100959.63;4963631;28;20094;-77
2023/08/26 06:53:40;;;;;;;3.72;1.30;;;;;;;23.54;52.59;100959.78;4964381;28;20113;-73
2023/08/26 06:56:05;;;;;;;4.75;1.40;;;;;;;23.57;52.54;100956.81;4963872;28;20039;-79
2023/08/26 06:58:31;;;;;;;4.90;1.58;;;;;;;23.56;53.08;100947.16;4964327;28;20039;-73
2023/08/26 07:00:56;;;;;;;4.80;1.63;;;;;;;23.57;53.19;100959.47;4964099;28;20464;-77
2023/08/26 07:03:22;;;;;;;4.17;1.30;;;;;;;23.55;53.41;100954.28;4959513;28;20472;-73
2023/08/26 07:05:47;;;;;;;4.50;1.38;;;;;;;23.58;53.22;100965.63;4963815;28;20492;-75
2023/08/26 07:08:14;;;;;;;3.60;1.63;;;;;;;23.58;53.27;100973.63;4964687;28;20031;-78
2023/08/26 07:10:40;;;;;;;4.15;1.50;;;;;;;23.58;53.07;100966.47;4964856;28;20027;-76
2023/08/26 07:13:06;;;;;;;5.03;1.50;;;;;;;23.59;53.06;100968.13;4963984;28;20461;-76
2023/08/26 07:15:31;;;;;;;4.13;1.60;;;;;;;23.57;53.67;100956.81;4963707;28;20173;-73
2023/08/26 07:17:56;;;;;;;3.70;1.40;;;;;;;23.58;53.44;100977.09;4964048;28;20395;-75
2023/08/26 07:20:22;;;;;;;5.32;1.30;;;;;;;23.59;53.59;100961.97;4963512;28;20502;-73
2023/08/26 07:22:48;;;;;;;4.68;1.63;;;;;;;23.59;53.51;100967.28;4963839;28;20559;-74
2023/08/26 07:25:13;;;;;;;5.10;1.60;;;;;;;23.64;53.76;100975.63;4964277;28;20050;-74
2023/08/26 07:27:40;;;;;;;4.47;1.40;;;;;;;23.63;53.12;100964.16;4962790;28;20043;-73
2023/08/26 07:30:06;;;;;;;3.15;1.33;;;;;;;23.63;53.22;100974.78;4962540;28;20039;-76
2023/08/26 07:32:31;;;;;;;4.78;1.58;;;;;;;23.61;53.84;100971.47;4963799;28;20110;-71
2023/08/26 07:34:57;;;;;;;3.73;1.57;;;;;;;23.70;53.28;100969.66;4962161;28;20122;-73
2023/08/26 07:37:22;;;;;;;4.22;1.48;;;;;;;23.77;53.43;100967.22;4962562;28;20707;-74
2023/08/26 07:39:49;;;;;;;4.75;1.50;;;;;;;23.75;53.18;100969.19;4962252;28;20031;-73
2023/08/26 07:42:15;;;;;;;3.80;1.40;;;;;;;23.75;53.37;100975.38;4962898;28;20038;-70
2023/08/26 07:44:40;;;;;;;5.63;1.50;;;;;;;23.81;53.30;100974.72;4962611;28;20129;-71
2023/08/26 07:47:06;;;;;;;3.25;1.27;;;;;;;23.85;53.21;100968.13;4962489;28;20053;-72
2023/08/26 07:49:31;;;;;;;5.80;1.48;;;;;;;23.87;53.27;100979.44;4963130;28;20037;-70
2023/08/26 07:51:56;;;;;;;3.70;1.20;;;;;;;23.89;53.45;100972.13;4963084;28;20050;-68
2023/08/26 07:54:21;;;;;;;4.25;1.40;;;;;;;23.92;53.25;100978.13;4962461;28;20272;-70
2023/08/26 07:56:47;;;;;;;4.53;1.50;;;;;;;23.93;53.17;100980.63;4962692;28;20035;-68
2023/08/26 07:59:12;;;;;;;3.75;1.48;;;;;;;23.96;52.90;100984.78;4962826;28;20423;-70
2023/08/26 08:01:38;;;;;;;3.97;1.40;;;;;;;23.96;53.03;100977.66;4962567;28;20118;-72
2023/08/26 08:04:03;;;;;;;4.65;1.63;;;;;;;23.94;53.23;100970.81;4963047;28;20026;-71
2023/08/26 08:06:34;;;;;;;4.15;1.30;;;;;;;24.00;52.92;100975.50;4964006;28;20042;-79
2023/08/26 08:08:59;;;;;;;3.60;1.00;;;;;;;23.99;53.00;100974.66;4945990;28;20039;-73
2023/08/26 08:11:25;;;;;;;4.85;1.20;;;;;;;23.99;53.14;100972.00;4962530;28;20471;-68
2023/08/26 08:13:51;;;;;;;4.45;1.40;;;;;;;24.00;53.13;100973.66;4961891;28;20885;-69
2023/08/26 08:16:16;;;;;;;4.40;1.33;;;;;;;23.96;53.14;100966.16;4961734;28;20419;-74
2023/08/26 08:18:41;;;;;;;3.95;1.10;;;;;;;23.87;53.58;100958.13;4961931;28;20046;-73
2023/08/26 08:21:08;;;;;;;4.90;1.45;;;;;;;23.90;53.20;100959.66;4961732;28;20582;-76
2023/08/26 08:23:36;;;;;;;7.88;1.45;;;;;;;23.94;53.30;100954.84;4961144;28;20506;-74
2023/08/26 08:26:01;;;;;;;4.07;1.50;;;;;;;23.95;53.31;100957.34;4961776;28;20542;-77
2023/08/26 08:28:29;;;;;;;6.18;1.50;;;;;;;23.98;53.33;100962.34;4962680;28;20035;-77
2023/08/26 08:30:55;;;;;;;4.15;1.33;;;;;;;23.95;53.75;100962.66;4976263;28;20027;-74
2023/08/26 08:33:20;;;;;;;4.70;1.30;;;;;;;23.92;53.76;100955.00;4962473;28;20077;-79
2023/08/26 08:35:45;;;;;;;4.35;1.48;;;;;;;23.90;53.65;100957.00;4961667;28;20093;-68
2023/08/26 08:38:11;;;;;;;3.67;1.20;;;;;;;23.88;53.98;100948.34;4962151;28;20478;-70
2023/08/26 08:40:37;;;;;;;3.13;1.13;;;;;;;23.86;53.80;100953.81;4962162;28;20035;-73
2023/08/26 08:43:05;;;;;;;6.70;1.55;;;;;;;23.88;53.39;100959.00;4962331;28;21016;-72
2023/08/26 08:45:33;;;;;;;5.20;1.30;;;;;;;23.87;53.81;100966.13;4961878;28;20043;-68
2023/08/26 08:47:58;;;;;;;5.97;2.08;;;;;;;23.88;53.33;100959.00;4961661;28;20039;-70
2023/08/26 08:50:24;;;;;;;5.18;1.70;;;;;;;23.86;53.61;100964.47;4960512;28;20810;-73
2023/08/26 08:52:54;;;;;;;3.30;1.00;;;;;;;23.83;53.44;100967.44;4961305;28;20034;-70
2023/08/26 08:55:19;;;;;;;3.58;1.30;;;;;;;23.82;53.62;100981.72;4965456;28;20049;-71
2023/08/26 08:57:46;;;;;;;6.07;1.33;;;;;;;23.80;53.86;100980.19;4961134;28;20034;-74
2023/08/26 09:00:12;;;;;;;5.32;1.10;;;;;;;23.84;53.87;100979.75;4962694;28;20031;-70
2023/08/26 09:02:42;;;;;;;4.95;1.25;;;;;;;23.88;53.68;100989.09;4962250;28;20042;-70
2023/08/26 09:05:08;;;;;;;4.07;1.58;;;;;;;23.94;53.39;100994.75;4961538;28;20057;-76
2023/08/26 09:07:36;;;;;;;5.00;1.42;;;;;;;23.94;53.83;100997.44;4962144;28;20127;-70
2023/08/26 09:10:02;;;;;;;5.15;2.80;;;;;;;23.94;53.50;100984.97;4962594;28;20037;-72
2023/08/26 09:12:31;;;;;;;3.38;1.20;;;;;;;23.96;53.83;100992.75;4961857;28;20547;-79
2023/08/26 09:14:57;;;;;;;3.03;1.08;;;;;;;23.96;53.50;100984.78;4960847;28;20043;-74
2023/08/26 09:17:22;;;;;;;5.07;1.50;;;;;;;24.01;53.51;100998.47;4961374;28;20030;-71
2023/08/26 09:20:16;;;;;;;5.30;1.30;;;;;;;23.99;53.51;100989.78;4960872;28;20490;-77
2023/08/26 09:22:42;;;;;;;6.22;1.67;;;;;;;24.03;53.83;100999.97;4961818;28;20038;-75
2023/08/26 09:25:09;;;;;;;2.83;1.10;;;;;;;24.03;53.72;100985.81;4960095;28;20494;-77
2023/08/26 09:27:42;;;;;;;4.22;1.58;;;;;;;24.01;53.58;100990.47;4961293;28;20210;-69
2023/08/26 09:30:08;;;;;;;6.40;1.85;;;;;;;24.02;53.79;100997.44;4961465;28;20070;-73
2023/08/26 09:32:39;;;;;;;5.95;1.90;;;;;;;23.96;53.73;101009.59;4960409;28;20070;-79
2023/08/26 09:35:13;;;;;;;7.72;2.10;;;;;;;23.91;54.17;101003.91;4961332;28;20097;-72
2023/08/26 09:37:45;;;;;;;5.82;1.92;;;;;;;23.93;54.63;101003.75;4961686;28;20034;-72
2023/08/26 09:40:14;;;;;;;7.85;2.25;;;;;;;23.95;55.02;101010.56;4961446;28;20042;-71
2023/08/26 09:42:41;;;;;;;6.45;1.80;;;;;;;23.98;54.93;101009.44;4961903;28;20026;-72
2023/08/26 09:45:10;;;;;;;6.78;2.10;;;;;;;23.97;54.92;101005.09;4961777;28;20053;-70
2023/08/26 09:47:37;;;;;;;5.97;2.00;;;;;;;23.94;55.21;101008.06;4960136;28;20043;-74
2023/08/26 09:50:04;;;;;;;5.25;1.95;;;;;;;23.99;55.22;101003.09;4961374;28;20070;-79
2023/08/26 09:52:29;;;;;;;6.32;2.10;;;;;;;23.99;55.11;101003.09;4961110;28;21143;-78
2023/08/26 09:54:55;;;;;;;7.43;1.88;;;;;;;24.00;55.29;100994.13;4960036;28;20034;-75
2023/08/26 09:57:21;;;;;;;6.85;1.90;;;;;;;23.95;55.14;100986.63;4960522;28;20101;-70
2023/08/26 09:59:46;;;;;;;7.63;2.13;;;;;;;24.00;55.01;101005.59;4960166;28;20038;-76
2023/08/26 10:02:21;;;;;;;4.53;1.70;;;;;;;23.96;55.03;101001.59;4959562;28;20121;-77
2023/08/26 10:04:54;;;;;;;6.65;1.83;;;;;;;24.01;54.96;101012.59;4960993;28;20035;-78
2023/08/26 10:07:22;;;;;;;7.47;2.10;;;;;;;24.03;55.26;100999.97;4961085;28;20125;-75
2023/08/26 10:09:55;;;;;;;6.30;1.95;;;;;;;24.01;55.23;100996.63;4960017;28;20042;-84
2023/08/26 10:12:28;;;;;;;6.78;1.48;;;;;;;24.02;54.96;101008.97;4960740;28;20051;-76
2023/08/26 10:14:56;;;;;;;6.38;1.73;;;;;;;24.01;55.24;101011.78;4959897;28;20037;-74
2023/08/26 10:17:25;;;;;;;5.28;1.90;;;;;;;23.98;55.31;101009.44;4960896;28;20038;-76
2023/08/26 10:19:51;;;;;;;6.85;1.90;;;;;;;24.01;55.52;101011.78;4960890;28;20500;-74
2023/08/26 10:22:17;;;;;;;4.68;1.35;;;;;;;24.00;55.35;101024.22;4959992;28;20113;-72
2023/08/26 10:24:42;;;;;;;5.60;1.73;;;;;;;24.00;55.16;101029.56;4961221;28;20043;-77
2023/08/26 10:27:08;;;;;;;5.32;1.67;;;;;;;24.02;55.21;101016.94;4958442;28;20069;-76
2023/08/26 10:29:38;;;;;;;4.80;1.50;;;;;;;24.03;55.11;101017.78;4957847;28;20043;-71
2023/08/26 10:32:21;;;;;;;6.22;1.58;;;;;;;24.04;55.07;101006.97;4958976;28;20035;-71
2023/08/26 10:34:54;;;;;;;5.28;1.60;;;;;;;24.03;55.00;100999.13;4958545;28;20038;-80
2023/08/26 10:37:22;;;;;;;7.40;1.67;;;;;;;24.03;55.00;101018.59;4959688;28;20027;-73
2023/08/26 10:39:47;;;;;;;4.00;1.30;;;;;;;24.00;55.47;101010.09;4960898;28;20042;-83
2023/08/26 10:42:16;;;;;;;4.78;1.33;;;;;;;23.98;55.47;101015.59;4960794;28;20035;-74
2023/08/26 10:44:45;;;;;;;3.47;1.38;;;;;;;23.97;55.56;101011.25;4960238;28;20121;-79
2023/08/26 10:47:11;;;;;;;5.40;1.67;;;;;;;23.96;55.60;101006.94;4963057;28;20035;-74
2023/08/26 10:49:39;;;;;;;4.80;1.50;;;;;;;23.95;55.53;101010.56;4960225;28;20034;-76
2023/08/26 10:52:17;;;;;;;3.35;1.13;;;;;;;23.92;55.88;101000.25;4959855;28;20030;-75
2023/08/26 10:54:46;;;;;;;4.65;1.42;;;;;;;23.95;55.06;100991.94;4960267;28;20038;-78
2023/08/26 10:57:12;;;;;;;5.28;1.30;;;;;;;23.99;54.58;101005.75;4959184;28;20035;-78
2023/08/26 10:59:40;;;;;;;4.75;1.58;;;;;;;23.98;55.16;100994.28;4959878;28;20088;-75
2023/08/26 11:02:11;;;;;;;5.22;1.60;;;;;;;24.01;54.93;100993.16;4960208;28;20129;-74
2023/08/26 11:04:44;;;;;;;3.17;1.27;;;;;;;24.03;54.95;100988.50;4959259;28;20035;-80
2023/08/26 11:07:17;;;;;;;7.38;1.58;;;;;;;24.03;54.64;100983.16;4959991;28;20097;-75
2023/08/26 11:09:43;;;;;;;3.45;1.23;;;;;;;24.01;54.31;100983.31;4974631;28;20046;-74
2023/08/26 11:12:28;;;;;;;4.32;1.38;;;;;;;23.99;54.56;100987.97;4960574;28;20033;-73
2023/08/26 11:15:03;;;;;;;6.07;1.25;;;;;;;23.98;53.35;100982.81;4963467;28;20117;-73
2023/08/26 11:17:29;;;;;;;3.63;1.10;;;;;;;23.93;54.11;100977.16;4964368;28;20077;-76
2023/08/26 11:19:55;;;;;;;4.78;1.30;;;;;;;23.93;54.43;100985.97;4962991;28;20038;-73
2023/08/26 11:22:25;;;;;;;4.18;1.23;;;;;;;23.93;54.42;100977.16;4964282;28;20603;-79